Terminal Aerodrome Forecast
Issued by NWS North Platte, NE

Home | Current Version | Previous Version | Text Only | Print | Product List | Glossary On
Versions: 1 2 3 4 5 6 7 8 9 10 11 12 13 14 15 16 17 18 19 20 21 22 23 24 25
617
FTUS43 KLBF 260426 AAA
TAFVTN
TAF AMD
KVTN 260426Z 2604/2624 14011KT P6SM OVC007
     FM260700 16007KT 5SM BR BKN004
      TEMPO 2610/2613 1/4SM FG BKN003
     FM261500 16006KT 2SM BR OVC015
     FM261700 14005KT P6SM BKN050
     FM262000 06004KT P6SM BKN100
     FM262300 02008KT P6SM BKN080=

USA.gov is the U.S. government's official web portal to all federal, state and local government web resources and services.